Time;durP1;ratioP1;P1;durP2;ratioP2;P2;SDS_P1;SDS_P2;PMS_P1;PMS_P2;Temp;Humidity;BMP_temperature;BMP_pressure;BME280_temperature;BME280_humidity;BME280_pressure;Samples;Min_cycle;Max_cycle;Signal;HPM_P1;HPM_P2
2021/11/11 00:01:02;;;;;;;26.80;13.93;;;5.10;99.90;;;;;;5055954;28;20198;-76
2021/11/11 00:03:29;;;;;;;23.58;13.15;;;5.10;99.90;;;;;;5055805;28;20315;-77
2021/11/11 00:05:57;;;;;;;21.92;14.13;;;4.90;99.90;;;;;;5055761;28;20284;-76
2021/11/11 00:08:24;;;;;;;20.48;13.95;;;4.80;99.90;;;;;;5055448;28;20233;-77
2021/11/11 00:10:51;;;;;;;21.10;12.45;;;4.70;99.90;;;;;;5055283;28;20229;-76
2021/11/11 00:13:19;;;;;;;22.10;13.93;;;4.90;99.90;;;;;;5055368;28;20241;-76
2021/11/11 00:15:46;;;;;;;22.38;14.70;;;4.60;99.90;;;;;;5055666;28;20212;-77
2021/11/11 00:18:15;;;;;;;25.17;13.27;;;4.90;99.90;;;;;;5055723;28;20204;-77
2021/11/11 00:20:42;;;;;;;22.48;14.40;;;4.90;99.90;;;;;;5055865;28;20225;-77
2021/11/11 00:23:09;;;;;;;22.13;12.93;;;4.70;99.90;;;;;;5055561;28;20602;-77
2021/11/11 00:25:37;;;;;;;21.27;13.00;;;4.70;99.90;;;;;;5055681;28;20206;-77
2021/11/11 00:28:05;;;;;;;19.08;13.02;;;4.70;99.90;;;;;;5055403;28;20221;-76
2021/11/11 00:30:32;;;;;;;21.35;12.30;;;4.60;99.90;;;;;;5055390;28;20228;-77
2021/11/11 00:32:59;;;;;;;20.75;12.18;;;5.00;99.90;;;;;;5055090;28;20747;-77
2021/11/11 00:35:29;;;;;;;19.95;12.07;;;5.00;99.90;;;;;;5055396;28;20554;-76
2021/11/11 00:37:58;;;;;;;22.38;13.40;;;4.90;99.90;;;;;;5056245;28;20284;-76
2021/11/11 00:40:26;;;;;;;18.50;12.88;;;4.80;99.90;;;;;;5055354;28;20230;-77
2021/11/11 00:42:53;;;;;;;21.92;13.88;;;4.70;99.90;;;;;;5055257;28;20210;-76
2021/11/11 00:45:21;;;;;;;25.77;14.70;;;4.60;99.90;;;;;;5055190;28;20202;-77
2021/11/11 00:47:50;;;;;;;21.08;13.77;;;4.50;99.90;;;;;;5055043;28;20222;-76
2021/11/11 00:50:19;;;;;;;21.50;13.25;;;4.60;99.90;;;;;;5054878;28;20222;-76
2021/11/11 00:52:47;;;;;;;21.15;13.80;;;4.40;99.90;;;;;;5054808;28;20210;-76
2021/11/11 00:55:14;;;;;;;25.40;14.88;;;4.60;99.90;;;;;;5054842;28;20297;-76
2021/11/11 00:57:41;;;;;;;20.30;13.43;;;4.70;99.90;;;;;;5054478;28;20206;-77
2021/11/11 01:00:10;;;;;;;26.77;13.80;;;4.80;99.90;;;;;;5054334;28;20238;-76
2021/11/11 01:02:38;;;;;;;26.05;14.70;;;4.60;99.90;;;;;;5080112;22;20320;-78
2021/11/11 01:05:06;;;;;;;23.13;13.68;;;4.50;99.90;;;;;;5059041;28;20263;-78
2021/11/11 01:07:33;;;;;;;18.85;13.77;;;4.50;99.90;;;;;;5056798;28;20226;-78
2021/11/11 01:10:01;;;;;;;27.00;16.02;;;4.50;99.90;;;;;;5066485;28;20202;-78
2021/11/11 01:12:28;;;;;;;23.45;14.70;;;4.60;99.90;;;;;;5069631;28;20226;-78
2021/11/11 01:14:55;;;;;;;18.52;13.18;;;4.40;99.90;;;;;;5066425;28;20252;-78
2021/11/11 01:17:22;;;;;;;25.77;14.75;;;4.70;99.90;;;;;;5066873;28;20630;-78
2021/11/11 01:19:49;;;;;;;26.70;13.27;;;4.60;99.90;;;;;;5061510;28;20260;-78
2021/11/11 01:22:15;;;;;;;31.48;14.48;;;4.50;99.90;;;;;;5055870;28;20698;-78
2021/11/11 01:24:42;;;;;;;22.05;15.38;;;4.70;99.90;;;;;;5056092;28;20293;-78
2021/11/11 01:27:11;;;;;;;20.75;14.75;;;4.60;99.90;;;;;;5056705;28;20245;-78
2021/11/11 01:29:38;;;;;;;20.73;14.15;;;4.50;99.90;;;;;;5056251;28;20542;-78
2021/11/11 01:32:05;;;;;;;22.45;14.07;;;4.70;99.90;;;;;;5056096;28;20226;-78
2021/11/11 01:34:32;;;;;;;19.98;13.63;;;4.60;99.90;;;;;;5059696;28;20288;-78
2021/11/11 01:36:59;;;;;;;19.77;11.98;;;4.80;99.90;;;;;;5068539;28;20210;-78
2021/11/11 01:39:26;;;;;;;19.80;13.95;;;4.60;99.90;;;;;;5055239;28;20241;-78
2021/11/11 01:41:53;;;;;;;19.15;12.80;;;4.60;99.90;;;;;;5055433;28;20592;-77
2021/11/11 01:44:22;;;;;;;19.40;14.35;;;4.50;99.90;;;;;;5056245;28;20221;-77
2021/11/11 01:46:49;;;;;;;21.33;13.63;;;4.40;99.90;;;;;;5061512;28;20206;-77
2021/11/11 01:49:16;;;;;;;19.38;13.85;;;4.50;99.90;;;;;;5054800;28;20232;-77
2021/11/11 01:51:46;;;;;;;21.17;13.65;;;4.40;99.90;;;;;;5054699;28;20206;-77
2021/11/11 01:54:13;;;;;;;21.55;13.52;;;4.60;99.90;;;;;;5053744;28;20290;-77
2021/11/11 01:56:41;;;;;;;19.10;13.07;;;4.50;99.90;;;;;;5053002;28;20246;-77
2021/11/11 01:59:08;;;;;;;18.77;14.07;;;4.30;99.90;;;;;;5052716;28;20212;-77
2021/11/11 02:01:36;;;;;;;19.40;12.95;;;4.30;99.90;;;;;;5053884;28;20206;-78
2021/11/11 02:04:04;;;;;;;22.17;14.05;;;4.50;99.90;;;;;;5053563;28;20217;-78
2021/11/11 02:06:31;;;;;;;21.75;13.82;;;4.60;99.90;;;;;;5054879;28;20217;-78
2021/11/11 02:08:58;;;;;;;21.27;14.75;;;4.40;99.90;;;;;;5056040;28;20237;-78
2021/11/11 02:11:25;;;;;;;20.85;14.90;;;4.40;99.90;;;;;;5054377;28;20210;-77
2021/11/11 02:13:52;;;;;;;25.50;14.02;;;4.20;99.90;;;;;;5055111;28;20226;-77
2021/11/11 02:16:18;;;;;;;24.33;13.77;;;4.10;99.90;;;;;;5053307;28;20206;-77
2021/11/11 02:18:47;;;;;;;20.25;12.88;;;4.40;99.90;;;;;;5053462;28;20208;-77
2021/11/11 02:21:16;;;;;;;22.20;14.02;;;4.30;99.90;;;;;;5053295;28;20290;-78
2021/11/11 02:23:43;;;;;;;23.70;14.00;;;4.10;99.90;;;;;;5052888;28;20234;-77
2021/11/11 02:26:10;;;;;;;21.83;13.80;;;4.30;99.90;;;;;;5052451;28;20379;-77
2021/11/11 02:28:37;;;;;;;24.08;15.15;;;4.40;99.90;;;;;;5052460;28;20604;-77
2021/11/11 02:31:05;;;;;;;23.52;14.65;;;4.40;99.90;;;;;;5053575;28;20310;-78
2021/11/11 02:33:32;;;;;;;27.33;15.45;;;4.20;99.90;;;;;;5052927;28;20229;-78
2021/11/11 02:35:59;;;;;;;22.60;14.60;;;4.10;99.90;;;;;;5052954;28;20208;-78
2021/11/11 02:38:27;;;;;;;25.20;14.50;;;4.30;99.90;;;;;;5054132;28;20206;-78
2021/11/11 02:40:54;;;;;;;20.05;13.25;;;4.20;99.90;;;;;;5052398;28;20210;-78
2021/11/11 02:43:22;;;;;;;20.48;13.95;;;4.30;99.90;;;;;;5053121;28;20623;-77
2021/11/11 02:45:52;;;;;;;26.75;14.38;;;4.30;99.90;;;;;;5056494;28;20296;-77
2021/11/11 02:48:22;;;;;;;21.08;14.30;;;4.30;99.90;;;;;;5053346;28;20259;-77
2021/11/11 02:50:51;;;;;;;22.25;13.93;;;4.40;99.90;;;;;;5053197;28;20190;-77
2021/11/11 02:53:18;;;;;;;18.80;13.18;;;4.10;99.90;;;;;;5053647;28;20222;-77
2021/11/11 02:55:47;;;;;;;25.20;14.13;;;4.20;99.90;;;;;;5056874;28;20206;-77
2021/11/11 02:58:14;;;;;;;24.33;13.70;;;4.10;99.90;;;;;;5052620;28;20705;-78
2021/11/11 03:00:48;;;;;;;20.23;14.02;;;4.10;99.90;;;;;;5052815;28;20205;-78
2021/11/11 03:03:16;;;;;;;24.30;14.02;;;4.20;99.90;;;;;;5052386;28;20238;-77
2021/11/11 03:05:43;;;;;;;26.20;14.13;;;4.10;99.90;;;;;;5058256;28;20210;-78
2021/11/11 03:08:10;;;;;;;23.10;13.77;;;4.20;99.90;;;;;;5059146;28;20632;-78
2021/11/11 03:10:39;;;;;;;22.90;14.07;;;4.20;99.90;;;;;;5054316;28;20225;-78
2021/11/11 03:13:09;;;;;;;21.98;14.07;;;4.40;99.90;;;;;;5053241;28;20284;-78
2021/11/11 03:15:36;;;;;;;25.80;15.05;;;4.00;99.90;;;;;;5053287;28;20214;-78
2021/11/11 03:18:04;;;;;;;23.65;14.40;;;4.20;99.90;;;;;;5063127;28;20206;-78
2021/11/11 03:20:33;;;;;;;23.67;14.15;;;4.10;99.90;;;;;;5062930;28;20589;-78
2021/11/11 03:23:01;;;;;;;23.83;14.88;;;4.20;99.90;;;;;;5058919;28;20256;-78
2021/11/11 03:25:32;;;;;;;22.38;15.30;;;4.10;99.90;;;;;;5061163;28;20202;-78
2021/11/11 03:27:59;;;;;;;23.30;15.18;;;4.10;99.90;;;;;;5058779;28;20225;-78
2021/11/11 03:30:29;;;;;;;27.10;15.90;;;4.10;99.90;;;;;;5057088;28;20209;-78
2021/11/11 03:32:57;;;;;;;25.00;14.95;;;3.90;99.90;;;;;;5056396;28;20718;-78
2021/11/11 03:35:25;;;;;;;27.48;14.02;;;4.20;99.90;;;;;;5056447;28;20643;-77
2021/11/11 03:37:57;;;;;;;22.27;14.60;;;4.00;99.90;;;;;;5056613;28;20198;-78
2021/11/11 03:40:26;;;;;;;24.13;14.70;;;4.10;99.90;;;;;;5056691;28;20277;-78
2021/11/11 03:42:54;;;;;;;24.90;15.23;;;4.40;99.90;;;;;;5061527;28;20774;-77
2021/11/11 03:45:22;;;;;;;21.50;14.15;;;4.20;99.90;;;;;;5055760;28;20212;-78
2021/11/11 03:47:51;;;;;;;26.20;15.55;;;4.50;99.90;;;;;;5057122;28;20297;-78
2021/11/11 03:50:20;;;;;;;25.40;16.08;;;4.20;99.90;;;;;;5059171;28;20212;-77
2021/11/11 03:52:48;;;;;;;25.98;15.00;;;4.60;99.90;;;;;;5057354;28;20230;-77
2021/11/11 03:55:17;;;;;;;20.70;14.73;;;4.10;99.90;;;;;;5056327;28;20580;-78
2021/11/11 03:57:44;;;;;;;24.52;15.40;;;4.10;99.90;;;;;;5055983;28;20244;-78
2021/11/11 04:00:15;;;;;;;22.50;13.98;;;4.30;99.90;;;;;;5056115;28;20211;-78
2021/11/11 04:02:42;;;;;;;20.75;14.75;;;4.40;99.90;;;;;;5056438;28;20242;-77
2021/11/11 04:05:11;;;;;;;28.95;14.48;;;4.30;99.90;;;;;;5056247;28;20232;-78
2021/11/11 04:07:38;;;;;;;21.83;14.40;;;4.40;99.90;;;;;;5056637;28;20206;-78
2021/11/11 04:10:05;;;;;;;22.83;14.15;;;4.30;99.90;;;;;;5058209;28;20257;-77
2021/11/11 04:12:32;;;;;;;24.80;15.07;;;4.40;99.90;;;;;;5058809;28;20593;-77
2021/11/11 04:14:59;;;;;;;24.13;14.48;;;4.30;99.90;;;;;;5063445;28;20277;-77
2021/11/11 04:17:26;;;;;;;21.52;13.73;;;4.60;99.90;;;;;;5062708;28;20306;-77
2021/11/11 04:19:53;;;;;;;24.42;14.60;;;4.40;99.90;;;;;;5062089;28;20202;-78
2021/11/11 04:22:21;;;;;;;23.20;15.85;;;4.30;99.90;;;;;;5058968;28;20319;-77
2021/11/11 04:24:49;;;;;;;21.60;14.88;;;4.50;99.90;;;;;;5061787;28;20214;-77
2021/11/11 04:27:21;;;;;;;27.85;15.07;;;4.70;99.90;;;;;;5058770;28;20286;-77
2021/11/11 04:29:56;;;;;;;21.60;14.68;;;4.70;99.90;;;;;;5060073;28;20670;-77
2021/11/11 04:32:23;;;;;;;25.60;14.15;;;4.50;99.90;;;;;;5060735;28;20229;-77
2021/11/11 04:34:55;;;;;;;27.77;14.60;;;4.50;99.90;;;;;;5060605;28;20213;-77
2021/11/11 04:37:28;;;;;;;19.55;13.80;;;4.60;99.90;;;;;;5061282;28;20206;-77
2021/11/11 04:40:19;;;;;;;21.85;14.20;;;4.40;99.90;;;;;;5060927;28;20198;-77
2021/11/11 04:43:08;;;;;;;29.40;15.07;;;4.30;99.90;;;;;;5059960;28;20258;-77
2021/11/11 04:51:43;;;;;;;23.60;14.65;;;4.10;99.90;;;;;;5059152;28;20230;-78
2021/11/11 04:59:53;;;;;;;22.45;14.88;;;4.00;99.90;;;;;;5055264;28;20256;-77
2021/11/11 05:05:07;;;;;;;24.27;15.65;;;4.00;99.90;;;;;;5049252;28;20198;-78
2021/11/11 05:07:35;;;;;;;25.88;16.58;;;3.80;99.90;;;;;;5054400;28;20206;-78
2021/11/11 05:10:03;;;;;;;22.55;15.25;;;3.80;99.90;;;;;;5054180;28;20341;-77
2021/11/11 05:12:30;;;;;;;23.98;14.98;;;3.90;99.90;;;;;;5053923;28;20226;-77
2021/11/11 05:14:57;;;;;;;22.88;15.82;;;4.20;99.90;;;;;;5053761;28;20216;-77
2021/11/11 05:17:24;;;;;;;25.23;14.40;;;4.30;99.90;;;;;;5053965;28;20212;-78
2021/11/11 05:19:52;;;;;;;23.52;15.70;;;4.20;99.90;;;;;;5053343;28;20575;-77
2021/11/11 05:22:19;;;;;;;20.88;14.60;;;4.00;99.90;;;;;;5055177;28;20264;-78
2021/11/11 05:24:46;;;;;;;23.35;14.48;;;4.10;99.90;;;;;;5054800;28;20206;-78
2021/11/11 05:27:15;;;;;;;24.88;15.13;;;4.10;99.90;;;;;;5054670;28;20206;-78
2021/11/11 05:29:42;;;;;;;21.15;15.35;;;3.90;99.90;;;;;;5059608;28;20291;-77
2021/11/11 05:32:10;;;;;;;24.40;15.70;;;4.10;99.90;;;;;;5057138;28;20333;-78
2021/11/11 05:34:37;;;;;;;23.10;15.60;;;4.10;99.90;;;;;;5058952;28;20216;-78
2021/11/11 05:37:04;;;;;;;22.95;14.52;;;4.10;99.90;;;;;;5054938;28;20224;-78
2021/11/11 05:39:32;;;;;;;20.40;14.00;;;4.10;99.90;;;;;;5058510;28;20186;-77
2021/11/11 05:41:59;;;;;;;27.83;15.20;;;3.90;99.90;;;;;;5054399;28;20233;-78
2021/11/11 05:44:27;;;;;;;24.83;15.10;;;4.00;99.90;;;;;;5055305;28;20206;-77
2021/11/11 05:46:54;;;;;;;24.80;15.15;;;4.10;99.90;;;;;;5055152;28;20206;-76
2021/11/11 05:49:21;;;;;;;32.90;17.48;;;3.90;99.90;;;;;;5055806;28;20311;-77
2021/11/11 05:51:48;;;;;;;22.27;15.45;;;4.10;99.90;;;;;;5054702;28;20341;-77
2021/11/11 05:54:15;;;;;;;26.25;14.57;;;4.30;99.90;;;;;;5054025;28;20622;-77
2021/11/11 05:56:42;;;;;;;23.48;15.07;;;4.20;99.90;;;;;;5053709;28;20209;-77
2021/11/11 05:59:09;;;;;;;19.75;14.35;;;4.30;99.90;;;;;;5053726;28;20238;-77
2021/11/11 06:01:37;;;;;;;24.20;16.17;;;4.50;99.90;;;;;;5054530;28;20260;-77
2021/11/11 06:04:04;;;;;;;23.38;14.23;;;4.10;99.90;;;;;;5053654;28;20228;-78
2021/11/11 06:06:33;;;;;;;23.77;16.40;;;4.20;99.90;;;;;;5054692;28;20642;-78
2021/11/11 06:09:00;;;;;;;25.73;14.80;;;4.00;99.90;;;;;;5053301;28;20356;-78
2021/11/11 06:11:27;;;;;;;23.88;14.95;;;3.70;99.90;;;;;;5054795;28;20617;-77
2021/11/11 06:13:54;;;;;;;26.83;16.20;;;3.90;99.90;;;;;;5054268;28;20226;-78
2021/11/11 06:16:22;;;;;;;23.02;15.00;;;3.70;99.90;;;;;;5054136;28;20647;-78
2021/11/11 06:18:51;;;;;;;25.58;16.95;;;3.80;99.90;;;;;;5052871;28;20202;-79
2021/11/11 06:21:21;;;;;;;25.90;17.75;;;3.80;99.90;;;;;;5057251;28;20635;-77
2021/11/11 06:23:49;;;;;;;25.42;15.20;;;3.70;99.90;;;;;;5056797;28;20226;-77
2021/11/11 06:26:16;;;;;;;24.65;15.25;;;3.70;99.90;;;;;;5054749;28;20205;-77
2021/11/11 06:28:42;;;;;;;25.90;17.02;;;3.50;99.90;;;;;;5053640;28;20527;-77
2021/11/11 06:31:09;;;;;;;25.85;17.63;;;3.50;99.90;;;;;;5053490;28;20212;-77
2021/11/11 06:33:36;;;;;;;23.95;16.15;;;3.60;99.90;;;;;;5054831;28;20234;-77
2021/11/11 06:36:05;;;;;;;25.23;17.02;;;3.80;99.90;;;;;;5057420;28;20654;-77
2021/11/11 06:38:32;;;;;;;32.25;18.92;;;3.80;99.90;;;;;;5052887;28;20210;-78
2021/11/11 06:40:59;;;;;;;25.02;16.13;;;3.90;99.90;;;;;;5052536;28;20190;-77
2021/11/11 06:43:26;;;;;;;28.95;18.15;;;4.00;99.90;;;;;;5053360;28;20226;-78
2021/11/11 06:45:52;;;;;;;25.45;16.23;;;4.30;99.90;;;;;;5053975;28;20241;-78
2021/11/11 06:48:19;;;;;;;30.60;16.10;;;4.20;99.90;;;;;;5054036;28;20217;-79
2021/11/11 06:50:47;;;;;;;27.50;16.10;;;4.30;99.90;;;;;;5054715;28;20241;-78
2021/11/11 06:53:18;;;;;;;27.48;16.90;;;4.00;99.90;;;;;;5058021;28;20232;-80
2021/11/11 06:55:46;;;;;;;26.95;17.45;;;4.10;99.90;;;;;;5057944;28;20200;-77
2021/11/11 06:58:15;;;;;;;25.13;16.60;;;4.00;99.90;;;;;;5057739;28;20304;-78
2021/11/11 07:00:43;;;;;;;32.72;16.02;;;3.90;99.90;;;;;;5058203;28;20245;-79
2021/11/11 07:03:10;;;;;;;25.83;16.60;;;3.90;99.90;;;;;;5068497;28;20233;-78
2021/11/11 07:05:36;;;;;;;27.05;15.90;;;3.90;99.90;;;;;;5058576;28;20210;-79
2021/11/11 07:08:08;;;;;;;34.33;16.45;;;3.90;99.90;;;;;;5058193;28;20663;-76
2021/11/11 07:10:37;;;;;;;27.40;16.55;;;4.10;99.90;;;;;;5056552;28;20213;-77
2021/11/11 07:13:03;;;;;;;25.98;16.27;;;4.10;99.90;;;;;;5057971;28;20653;-81
2021/11/11 07:15:31;;;;;;;25.35;16.10;;;4.40;99.90;;;;;;5058584;28;20248;-78
2021/11/11 07:17:58;;;;;;;26.08;16.33;;;4.20;99.90;;;;;;5059407;28;20260;-78
2021/11/11 07:20:25;;;;;;;27.23;15.95;;;4.00;99.90;;;;;;5057775;28;20190;-77
2021/11/11 07:22:54;;;;;;;28.83;17.92;;;4.10;99.90;;;;;;5055624;28;20250;-77
2021/11/11 07:25:21;;;;;;;27.85;17.75;;;4.20;99.90;;;;;;5055934;28;20206;-77
2021/11/11 07:27:50;;;;;;;28.30;17.15;;;4.10;99.90;;;;;;5057468;28;20562;-77
2021/11/11 07:30:21;;;;;;;27.65;17.83;;;4.00;99.90;;;;;;5069023;28;20229;-77
2021/11/11 07:32:49;;;;;;;33.10;18.05;;;3.90;99.90;;;;;;5058629;28;20575;-78
2021/11/11 07:35:39;;;;;;;;;;;;;;;;;;;;;
2021/11/11 07:38:13;;;;;;;29.52;20.05;;;4.20;99.90;;;;;;5069659;28;20738;-76
2021/11/11 07:40:40;;;;;;;34.20;20.30;;;4.20;99.90;;;;;;5062898;28;20190;-79
2021/11/11 07:43:08;;;;;;;29.23;20.83;;;4.50;99.90;;;;;;5066375;28;20313;-78
2021/11/11 07:45:36;;;;;;;26.77;21.00;;;4.50;99.90;;;;;;5060718;28;20596;-79
2021/11/11 07:48:03;;;;;;;30.95;19.90;;;4.40;99.90;;;;;;5057043;28;20241;-78
2021/11/11 07:50:31;;;;;;;30.27;19.67;;;4.90;99.90;;;;;;5057840;28;20218;-79
2021/11/11 07:53:00;;;;;;;33.22;21.60;;;4.50;99.90;;;;;;5064070;28;20313;-78
2021/11/11 07:55:27;;;;;;;30.80;21.15;;;4.70;99.90;;;;;;5066327;28;20228;-79
2021/11/11 07:57:55;;;;;;;27.65;18.85;;;4.50;99.90;;;;;;5057780;28;20229;-79
2021/11/11 08:00:23;;;;;;;35.83;20.77;;;4.70;99.90;;;;;;5058613;28;20224;-79
2021/11/11 08:02:51;;;;;;;29.58;20.73;;;4.50;99.90;;;;;;5057020;28;20238;-82
2021/11/11 08:05:19;;;;;;;28.42;19.55;;;4.70;99.90;;;;;;5062590;28;20226;-81
2021/11/11 08:07:48;;;;;;;30.15;20.25;;;4.70;99.90;;;;;;5065826;28;20206;-79
2021/11/11 08:10:15;;;;;;;29.65;20.75;;;4.60;99.90;;;;;;5060348;28;20225;-79
2021/11/11 08:12:50;;;;;;;28.05;19.40;;;4.60;99.90;;;;;;5062429;28;20324;-77
2021/11/11 08:15:17;;;;;;;32.55;21.50;;;4.80;99.90;;;;;;5065207;28;20194;-80
2021/11/11 08:17:46;;;;;;;30.80;21.85;;;4.70;99.90;;;;;;5059012;28;20212;-80
2021/11/11 08:20:14;;;;;;;34.38;20.60;;;4.80;99.90;;;;;;5061897;28;20221;-80
2021/11/11 08:22:42;;;;;;;29.85;19.15;;;4.90;99.90;;;;;;5057296;28;20257;-78
2021/11/11 08:25:10;;;;;;;34.15;20.35;;;5.00;99.90;;;;;;5057169;28;20632;-79
2021/11/11 08:27:38;;;;;;;37.17;20.88;;;5.10;99.90;;;;;;5058338;28;20216;-80
2021/11/11 08:30:07;;;;;;;32.22;20.55;;;5.00;99.90;;;;;;5067704;28;20289;-79
2021/11/11 08:32:35;;;;;;;48.90;19.63;;;5.10;99.90;;;;;;5059051;28;20336;-76
2021/11/11 08:35:04;;;;;;;29.67;20.08;;;5.40;99.90;;;;;;5056533;28;20613;-77
2021/11/11 08:37:31;;;;;;;32.85;19.23;;;5.50;99.90;;;;;;5056569;28;20301;-78
2021/11/11 08:39:57;;;;;;;31.95;19.95;;;5.50;99.90;;;;;;5058583;28;20615;-78
2021/11/11 08:42:24;;;;;;;31.27;20.42;;;5.60;99.90;;;;;;5055821;28;20282;-77
2021/11/11 08:44:53;;;;;;;29.73;18.67;;;5.50;99.90;;;;;;5056898;28;20729;-78
2021/11/11 08:47:22;;;;;;;27.05;18.20;;;5.70;99.90;;;;;;5074956;22;20234;-77
2021/11/11 08:49:52;;;;;;;25.55;18.80;;;5.80;99.90;;;;;;5039487;28;20231;-78
2021/11/11 08:52:22;;;;;;;26.83;19.33;;;5.70;99.90;;;;;;5035954;28;20621;-80
2021/11/11 08:54:50;;;;;;;29.63;20.70;;;5.60;99.90;;;;;;5037904;28;20218;-76
2021/11/11 08:57:17;;;;;;;30.63;20.17;;;5.70;99.90;;;;;;5034253;28;20226;-76
2021/11/11 08:59:44;;;;;;;27.05;19.90;;;5.80;99.90;;;;;;5035836;28;20667;-79
2021/11/11 09:02:12;;;;;;;33.22;21.50;;;5.80;99.90;;;;;;5038537;28;20214;-80
2021/11/11 09:04:39;;;;;;;36.80;21.67;;;5.90;99.90;;;;;;5044970;28;20291;-78
2021/11/11 09:07:06;;;;;;;28.50;21.50;;;6.10;99.90;;;;;;5039572;28;20290;-78
2021/11/11 09:09:34;;;;;;;30.27;19.88;;;6.00;99.90;;;;;;5040175;28;20258;-79
2021/11/11 09:12:02;;;;;;;34.97;21.92;;;6.10;99.90;;;;;;5042685;28;20210;-79
2021/11/11 09:14:30;;;;;;;32.25;21.13;;;6.10;99.90;;;;;;5043796;28;20569;-79
2021/11/11 09:16:58;;;;;;;26.40;19.38;;;6.30;99.90;;;;;;5056805;28;20237;-78
2021/11/11 09:19:25;;;;;;;28.23;19.63;;;6.40;99.90;;;;;;5056710;28;20234;-78
2021/11/11 09:21:51;;;;;;;27.25;19.38;;;6.10;99.90;;;;;;5055534;28;20254;-79
2021/11/11 09:24:18;;;;;;;31.38;20.73;;;6.20;99.90;;;;;;5055110;28;20297;-78
2021/11/11 09:26:46;;;;;;;27.48;21.27;;;6.30;99.90;;;;;;5041501;28;20191;-79
2021/11/11 09:29:14;;;;;;;30.77;19.48;;;6.60;99.90;;;;;;5037293;28;20245;-78
2021/11/11 09:31:41;;;;;;;26.23;19.98;;;6.70;99.90;;;;;;5037092;28;20548;-79
2021/11/11 09:34:08;;;;;;;31.35;18.92;;;6.60;99.90;;;;;;5038322;28;20197;-79
2021/11/11 09:36:35;;;;;;;27.45;20.48;;;6.90;99.90;;;;;;5037754;28;20210;-80
2021/11/11 09:39:05;;;;;;;32.28;20.65;;;7.10;99.90;;;;;;5036983;28;20298;-78
2021/11/11 09:41:32;;;;;;;32.80;19.00;;;6.90;99.90;;;;;;5036554;28;20593;-78
2021/11/11 09:44:01;;;;;;;26.73;19.50;;;7.10;99.90;;;;;;5037106;28;20207;-79
2021/11/11 09:46:28;;;;;;;26.30;19.42;;;7.00;99.90;;;;;;5036773;28;20247;-78
2021/11/11 09:48:55;;;;;;;27.88;19.20;;;6.90;99.90;;;;;;5036135;28;20214;-78
2021/11/11 09:51:24;;;;;;;24.60;18.80;;;7.20;99.90;;;;;;5036692;28;20217;-78
2021/11/11 09:54:18;;;;;;;28.90;20.40;;;7.00;99.90;;;;;;5039188;28;20207;-78
2021/11/11 09:59:35;;;;;;;29.92;19.77;;;7.30;99.90;;;;;;5036373;28;20190;-78
2021/11/11 10:02:02;;;;;;;27.90;18.02;;;7.20;99.90;;;;;;5036477;28;20191;-78
2021/11/11 10:04:29;;;;;;;30.60;20.13;;;7.30;99.90;;;;;;5035008;28;20629;-79
2021/11/11 10:06:56;;;;;;;32.58;20.52;;;7.60;99.90;;;;;;5036937;28;20227;-79
2021/11/11 10:09:25;;;;;;;34.22;20.08;;;7.50;99.90;;;;;;5039155;28;20262;-78
2021/11/11 10:11:54;;;;;;;31.73;20.38;;;7.50;99.90;;;;;;5039267;28;20226;-79
2021/11/11 10:14:23;;;;;;;28.20;20.55;;;7.60;99.90;;;;;;5038710;28;20210;-79
2021/11/11 10:16:54;;;;;;;27.60;19.50;;;7.50;99.90;;;;;;5033413;28;20233;-76
2021/11/11 10:19:22;;;;;;;24.08;19.13;;;7.60;99.90;;;;;;5033489;28;20191;-77
2021/11/11 10:21:52;;;;;;;31.20;21.52;;;7.70;99.90;;;;;;5033360;28;20207;-78
2021/11/11 10:24:23;;;;;;;32.95;21.35;;;7.80;99.90;;;;;;5035102;28;20269;-78
2021/11/11 10:26:54;;;;;;;28.52;19.92;;;7.70;99.90;;;;;;5033176;28;20601;-77
2021/11/11 10:29:25;;;;;;;29.00;21.63;;;7.80;99.90;;;;;;5034868;28;20199;-77
2021/11/11 10:31:57;;;;;;;26.98;19.60;;;7.90;99.90;;;;;;5035202;28;20560;-77
2021/11/11 10:34:24;;;;;;;25.35;19.08;;;7.90;99.90;;;;;;5033988;28;20195;-78
2021/11/11 10:36:54;;;;;;;27.10;19.63;;;8.00;99.90;;;;;;5034285;28;20604;-78
2021/11/11 10:39:24;;;;;;;30.98;20.80;;;8.10;99.90;;;;;;5041563;28;20192;-78
2021/11/11 10:41:52;;;;;;;28.98;18.98;;;8.00;99.90;;;;;;5039016;28;20215;-78
2021/11/11 10:44:26;;;;;;;28.38;18.05;;;8.30;99.90;;;;;;5036832;28;20680;-78
2021/11/11 10:46:56;;;;;;;29.98;19.55;;;8.20;99.90;;;;;;5036371;28;20326;-78
2021/11/11 10:49:28;;;;;;;26.00;19.55;;;8.30;99.90;;;;;;5035218;28;20252;-78
2021/11/11 10:51:56;;;;;;;26.13;20.05;;;8.20;99.90;;;;;;5035155;28;20243;-79
2021/11/11 10:54:23;;;;;;;28.05;18.83;;;8.20;99.90;;;;;;5034852;28;20207;-77
2021/11/11 10:56:51;;;;;;;25.58;18.35;;;8.20;99.90;;;;;;5034483;28;20230;-78
2021/11/11 10:59:20;;;;;;;27.77;18.65;;;8.20;99.90;;;;;;5033776;28;20212;-79
2021/11/11 11:02:04;;;;;;;32.35;21.75;;;8.30;99.90;;;;;;5034683;28;20232;-82
2021/11/11 11:04:32;;;;;;;29.25;19.45;;;8.20;99.90;;;;;;5036124;28;20230;-78
2021/11/11 11:07:16;;;;;;;26.60;19.08;;;8.20;99.90;;;;;;5035096;28;20373;-78
2021/11/11 11:09:43;;;;;;;28.02;19.83;;;8.30;99.90;;;;;;5036524;28;20548;-78
2021/11/11 11:12:37;;;;;;;26.33;19.33;;;8.50;99.90;;;;;;5032724;28;20239;-77
2021/11/11 11:15:04;;;;;;;27.85;20.90;;;8.70;99.90;;;;;;4998133;28;20227;-76
2021/11/11 11:17:32;;;;;;;29.75;19.98;;;8.60;99.90;;;;;;5032738;28;20599;-75
2021/11/11 11:20:19;;;;;;;28.98;20.45;;;8.60;99.90;;;;;;5032547;28;20212;-76
2021/11/11 11:22:46;;;;;;;27.85;19.30;;;8.80;99.90;;;;;;5032124;28;20219;-75
2021/11/11 11:25:14;;;;;;;26.05;18.75;;;9.00;99.90;;;;;;5032174;28;20208;-76
2021/11/11 11:27:41;;;;;;;26.33;19.15;;;9.20;99.90;;;;;;5032121;28;20254;-76
2021/11/11 11:30:12;;;;;;;26.10;18.25;;;9.10;99.90;;;;;;5032480;28;20303;-75
2021/11/11 11:32:43;;;;;;;29.77;19.35;;;9.20;99.90;;;;;;5032660;28;20242;-75
2021/11/11 11:35:11;;;;;;;25.45;20.08;;;9.10;99.90;;;;;;5032631;28;20200;-75
2021/11/11 11:37:39;;;;;;;34.97;20.90;;;9.00;99.90;;;;;;5033959;28;20228;-77
2021/11/11 11:40:09;;;;;;;27.80;21.08;;;9.10;99.90;;;;;;5036720;28;20212;-76
2021/11/11 11:42:39;;;;;;;28.63;19.70;;;9.00;99.90;;;;;;5036181;28;20204;-76
2021/11/11 11:45:08;;;;;;;24.63;19.05;;;9.10;99.90;;;;;;5035335;28;20338;-76
2021/11/11 11:47:39;;;;;;;23.25;19.05;;;9.10;99.90;;;;;;5035753;28;20234;-76
2021/11/11 11:50:11;;;;;;;24.60;17.92;;;9.00;99.90;;;;;;5035927;28;20197;-74
2021/11/11 11:52:43;;;;;;;33.28;19.90;;;9.00;99.90;;;;;;5035475;28;20654;-76
2021/11/11 11:55:14;;;;;;;22.50;18.48;;;9.20;99.90;;;;;;5035472;28;20696;-74
2021/11/11 11:57:55;;;;;;;27.58;21.30;;;9.20;99.90;;;;;;5035607;28;20236;-76
2021/11/11 12:06:13;;;;;;;23.08;18.20;;;9.30;99.90;;;;;;5032556;28;20205;-76
2021/11/11 12:08:49;;;;;;;24.77;19.30;;;9.20;99.90;;;;;;5035541;28;20224;-76
2021/11/11 12:14:12;;;;;;;24.45;14.63;;;9.10;99.90;;;;;;5014321;28;20664;-75
2021/11/11 12:16:58;;;;;;;12.05;7.40;;;9.20;99.90;;;;;;5035146;28;20228;-77
2021/11/11 12:39:41;;;;;;;23.35;17.45;;;8.40;99.90;;;;;;5043752;28;20214;-78
2021/11/11 12:42:11;;;;;;;26.35;18.50;;;8.80;99.90;;;;;;5051790;28;20195;-78
2021/11/11 12:44:58;;;;;;;26.45;18.33;;;8.80;99.90;;;;;;5050224;28;20603;-78
2021/11/11 12:47:32;;;;;;;21.88;14.77;;;8.90;99.90;;;;;;5041435;28;20240;-78
2021/11/11 12:50:28;;;;;;;25.05;19.77;;;9.00;99.90;;;;;;5044695;28;20278;-78
2021/11/11 12:53:34;;;;;;;26.50;19.20;;;9.10;99.90;;;;;;5036421;28;20600;-78
2021/11/11 12:56:18;;;;;;;24.20;18.23;;;9.00;99.90;;;;;;5029725;28;20204;-78
2021/11/11 12:58:47;;;;;;;22.77;18.42;;;8.90;99.90;;;;;;5037817;28;20232;-78
2021/11/11 13:01:17;;;;;;;27.02;21.08;;;9.00;99.90;;;;;;5036718;28;20275;-77
2021/11/11 13:03:51;;;;;;;27.63;20.13;;;9.00;99.90;;;;;;5034064;28;20304;-76
2021/11/11 13:06:37;;;;;;;24.95;18.60;;;8.90;99.90;;;;;;5034881;28;20275;-77
2021/11/11 13:09:10;;;;;;;33.05;23.08;;;9.00;99.90;;;;;;5035802;28;20576;-77
2021/11/11 13:11:42;;;;;;;25.17;19.25;;;9.00;99.90;;;;;;5034540;28;20313;-77
2021/11/11 13:14:15;;;;;;;25.67;19.00;;;9.10;99.90;;;;;;5034308;28;20291;-76
2021/11/11 13:16:42;;;;;;;26.77;18.05;;;9.10;99.90;;;;;;5034323;28;20628;-76
2021/11/11 13:19:09;;;;;;;28.08;20.25;;;9.00;99.90;;;;;;5034352;28;20219;-77
2021/11/11 13:21:50;;;;;;;27.95;20.63;;;9.00;99.90;;;;;;5036115;28;20266;-79
2021/11/11 13:24:33;;;;;;;34.25;21.45;;;8.90;99.90;;;;;;5037460;28;20274;-76
2021/11/11 14:01:13;;;;;;;33.22;23.10;;;8.70;99.90;;;;;;5035637;28;20202;-79
2021/11/11 16:01:33;;;;;;;34.75;24.35;;;7.20;99.90;;;;;;5039906;28;20193;-77
2021/11/11 16:19:34;;;;;;;34.38;24.67;;;7.10;99.90;;;;;;5043655;28;20282;-77
2021/11/11 16:20:54;;;;;;;38.42;25.95;;;6.60;99.90;;;;;;5068870;28;20184;-83